sensor_id;sensor_type;location;lat;lon;timestamp;pressure;altitude;pressure_sealevel;temperature;humidity
7335;BME280;3708;42.632;23.378;2022-08-16T00:00:54;93916.56;;;23.09;51.47
7335;BME280;3708;42.632;23.378;2022-08-16T00:03:22;93916.97;;;23.07;51.74
7335;BME280;3708;42.632;23.378;2022-08-16T00:05:50;93920.69;;;23.13;51.67
7335;BME280;3708;42.632;23.378;2022-08-16T00:08:18;93918.38;;;23.15;51.75
7335;BME280;3708;42.632;23.378;2022-08-16T00:10:45;93925.09;;;23.23;51.50
7335;BME280;3708;42.632;23.378;2022-08-16T00:13:12;93916.75;;;23.21;51.77
7335;BME280;3708;42.632;23.378;2022-08-16T00:15:42;93916.34;;;23.23;51.68
7335;BME280;3708;42.632;23.378;2022-08-16T00:18:09;93926.63;;;23.24;51.63
7335;BME280;3708;42.632;23.378;2022-08-16T00:20:37;93926.56;;;23.28;51.69
7335;BME280;3708;42.632;23.378;2022-08-16T00:23:07;93925.81;;;23.27;51.50
7335;BME280;3708;42.632;23.378;2022-08-16T00:25:34;93925.88;;;23.24;51.57
7335;BME280;3708;42.632;23.378;2022-08-16T00:28:02;93934.84;;;23.10;51.84
7335;BME280;3708;42.632;23.378;2022-08-16T00:30:30;93922.47;;;22.97;52.01
7335;BME280;3708;42.632;23.378;2022-08-16T00:32:59;93925.84;;;22.74;52.63
7335;BME280;3708;42.632;23.378;2022-08-16T00:35:30;93927.75;;;22.43;53.79
7335;BME280;3708;42.632;23.378;2022-08-16T00:37:58;93926.13;;;22.49;53.66
7335;BME280;3708;42.632;23.378;2022-08-16T00:40:32;93921.63;;;22.46;54.00
7335;BME280;3708;42.632;23.378;2022-08-16T00:42:59;93923.97;;;22.41;54.20
7335;BME280;3708;42.632;23.378;2022-08-16T00:45:35;93920.47;;;22.14;54.93
7335;BME280;3708;42.632;23.378;2022-08-16T00:48:06;93924.69;;;22.15;55.01
7335;BME280;3708;42.632;23.378;2022-08-16T00:50:35;93917.16;;;22.06;55.36
7335;BME280;3708;42.632;23.378;2022-08-16T00:53:03;93928.50;;;22.14;55.31
7335;BME280;3708;42.632;23.378;2022-08-16T00:55:33;93937.91;;;22.22;55.16
7335;BME280;3708;42.632;23.378;2022-08-16T00:58:00;93940.94;;;22.24;55.14
7335;BME280;3708;42.632;23.378;2022-08-16T01:00:30;93938.97;;;22.31;55.02
7335;BME280;3708;42.632;23.378;2022-08-16T01:03:00;93930.88;;;22.38;54.82
7335;BME280;3708;42.632;23.378;2022-08-16T01:05:28;93934.97;;;22.43;54.76
7335;BME280;3708;42.632;23.378;2022-08-16T01:07:55;93936.88;;;22.46;54.66
7335;BME280;3708;42.632;23.378;2022-08-16T01:10:27;93939.09;;;22.51;54.49
7335;BME280;3708;42.632;23.378;2022-08-16T01:12:56;93945.88;;;22.59;54.31
7335;BME280;3708;42.632;23.378;2022-08-16T01:15:24;93949.00;;;22.50;53.96
7335;BME280;3708;42.632;23.378;2022-08-16T01:17:53;93938.88;;;22.38;54.37
7335;BME280;3708;42.632;23.378;2022-08-16T01:20:22;93945.34;;;22.37;54.42
7335;BME280;3708;42.632;23.378;2022-08-16T01:22:55;93952.97;;;22.39;54.46
7335;BME280;3708;42.632;23.378;2022-08-16T01:25:28;93958.28;;;22.42;54.44
7335;BME280;3708;42.632;23.378;2022-08-16T01:27:58;93958.91;;;22.50;54.20
7335;BME280;3708;42.632;23.378;2022-08-16T01:30:29;93961.66;;;22.46;53.73
7335;BME280;3708;42.632;23.378;2022-08-16T01:33:01;93947.19;;;22.44;53.63
7335;BME280;3708;42.632;23.378;2022-08-16T01:35:32;93960.03;;;22.52;53.66
7335;BME280;3708;42.632;23.378;2022-08-16T01:38:15;93962.78;;;22.45;53.34
7335;BME280;3708;42.632;23.378;2022-08-16T01:40:45;93960.66;;;22.33;54.53
7335;BME280;3708;42.632;23.378;2022-08-16T01:43:12;93961.44;;;22.30;54.50
7335;BME280;3708;42.632;23.378;2022-08-16T01:45:39;93959.53;;;22.31;55.27
7335;BME280;3708;42.632;23.378;2022-08-16T01:48:06;93960.09;;;22.15;56.03
7335;BME280;3708;42.632;23.378;2022-08-16T01:50:33;93956.03;;;22.04;56.82
7335;BME280;3708;42.632;23.378;2022-08-16T01:53:00;93960.84;;;22.16;56.76
7335;BME280;3708;42.632;23.378;2022-08-16T01:55:28;93952.56;;;22.07;56.97
7335;BME280;3708;42.632;23.378;2022-08-16T01:57:57;93960.47;;;21.32;58.72
7335;BME280;3708;42.632;23.378;2022-08-16T02:00:24;93971.69;;;21.06;60.12
7335;BME280;3708;42.632;23.378;2022-08-16T02:02:51;93961.47;;;21.49;59.44
7335;BME280;3708;42.632;23.378;2022-08-16T02:05:19;93957.69;;;21.90;58.10
7335;BME280;3708;42.632;23.378;2022-08-16T02:07:46;93958.53;;;22.18;57.20
7335;BME280;3708;42.632;23.378;2022-08-16T02:10:13;93957.72;;;22.24;57.06
7335;BME280;3708;42.632;23.378;2022-08-16T02:12:42;93968.78;;;21.85;58.30
7335;BME280;3708;42.632;23.378;2022-08-16T02:15:11;93980.25;;;21.31;60.94
7335;BME280;3708;42.632;23.378;2022-08-16T02:17:39;93979.81;;;21.40;61.17
7335;BME280;3708;42.632;23.378;2022-08-16T02:20:07;93983.47;;;21.60;60.20
7335;BME280;3708;42.632;23.378;2022-08-16T02:22:35;93984.88;;;21.27;61.45
7335;BME280;3708;42.632;23.378;2022-08-16T02:25:06;93997.72;;;21.39;61.44
7335;BME280;3708;42.632;23.378;2022-08-16T02:27:34;94019.28;;;21.55;61.09
7335;BME280;3708;42.632;23.378;2022-08-16T02:30:01;94032.03;;;21.30;62.33
7335;BME280;3708;42.632;23.378;2022-08-16T02:32:29;94041.38;;;20.87;64.42
7335;BME280;3708;42.632;23.378;2022-08-16T02:34:56;94054.84;;;20.55;65.54
7335;BME280;3708;42.632;23.378;2022-08-16T02:37:23;94052.22;;;20.37;66.50
7335;BME280;3708;42.632;23.378;2022-08-16T02:39:50;94041.91;;;20.57;65.74
7335;BME280;3708;42.632;23.378;2022-08-16T02:42:17;94052.59;;;20.39;65.87
7335;BME280;3708;42.632;23.378;2022-08-16T02:44:44;94048.72;;;20.65;65.41
7335;BME280;3708;42.632;23.378;2022-08-16T02:47:11;94061.53;;;20.88;64.51
7335;BME280;3708;42.632;23.378;2022-08-16T02:49:39;94039.19;;;20.64;65.42
7335;BME280;3708;42.632;23.378;2022-08-16T02:52:08;94036.72;;;21.12;63.69
7335;BME280;3708;42.632;23.378;2022-08-16T02:54:35;94032.72;;;21.41;62.96
7335;BME280;3708;42.632;23.378;2022-08-16T02:57:02;94037.50;;;21.64;61.89
7335;BME280;3708;42.632;23.378;2022-08-16T02:59:30;94030.56;;;21.73;61.57
7335;BME280;3708;42.632;23.378;2022-08-16T03:01:57;94021.94;;;22.03;60.69
7335;BME280;3708;42.632;23.378;2022-08-16T03:04:24;94022.53;;;22.21;59.78
7335;BME280;3708;42.632;23.378;2022-08-16T03:06:53;94016.34;;;22.28;59.58
7335;BME280;3708;42.632;23.378;2022-08-16T03:09:20;94017.22;;;22.55;59.06
7335;BME280;3708;42.632;23.378;2022-08-16T03:11:47;94021.84;;;22.47;58.53
7335;BME280;3708;42.632;23.378;2022-08-16T03:14:14;94015.44;;;22.41;58.70
7335;BME280;3708;42.632;23.378;2022-08-16T03:16:41;94012.28;;;22.53;58.00
7335;BME280;3708;42.632;23.378;2022-08-16T03:19:28;94001.09;;;22.65;58.04
7335;BME280;3708;42.632;23.378;2022-08-16T03:21:57;94003.28;;;22.74;57.97
7335;BME280;3708;42.632;23.378;2022-08-16T03:24:24;94005.75;;;22.88;57.32
7335;BME280;3708;42.632;23.378;2022-08-16T03:26:52;94008.31;;;22.99;57.01
7335;BME280;3708;42.632;23.378;2022-08-16T03:29:19;94011.00;;;22.95;56.85
7335;BME280;3708;42.632;23.378;2022-08-16T03:31:46;94009.25;;;22.85;56.96
7335;BME280;3708;42.632;23.378;2022-08-16T03:34:14;93998.84;;;22.91;56.99
7335;BME280;3708;42.632;23.378;2022-08-16T03:36:41;94002.63;;;22.93;56.66
7335;BME280;3708;42.632;23.378;2022-08-16T03:39:09;94002.91;;;22.72;57.35
7335;BME280;3708;42.632;23.378;2022-08-16T03:41:36;93999.69;;;22.84;56.78
7335;BME280;3708;42.632;23.378;2022-08-16T03:44:06;93999.31;;;22.86;56.52
7335;BME280;3708;42.632;23.378;2022-08-16T03:46:33;94006.47;;;22.92;56.28
7335;BME280;3708;42.632;23.378;2022-08-16T03:49:00;94015.84;;;23.04;56.09
7335;BME280;3708;42.632;23.378;2022-08-16T03:51:27;94007.03;;;23.07;55.89
7335;BME280;3708;42.632;23.378;2022-08-16T03:53:54;94006.63;;;23.08;56.06
7335;BME280;3708;42.632;23.378;2022-08-16T03:56:23;94003.31;;;23.27;55.93
7335;BME280;3708;42.632;23.378;2022-08-16T03:58:52;94003.47;;;23.43;55.53
7335;BME280;3708;42.632;23.378;2022-08-16T04:01:21;94001.06;;;23.53;54.99
7335;BME280;3708;42.632;23.378;2022-08-16T04:03:49;93997.03;;;23.64;54.83
7335;BME280;3708;42.632;23.378;2022-08-16T04:06:16;94009.28;;;23.62;54.67
7335;BME280;3708;42.632;23.378;2022-08-16T04:08:43;93999.84;;;23.30;55.39
7335;BME280;3708;42.632;23.378;2022-08-16T04:11:10;93991.50;;;23.52;54.58
7335;BME280;3708;42.632;23.378;2022-08-16T04:13:39;93999.25;;;23.69;53.64
7335;BME280;3708;42.632;23.378;2022-08-16T04:16:06;93996.06;;;23.78;54.09
7335;BME280;3708;42.632;23.378;2022-08-16T04:18:34;94000.81;;;23.67;54.82
7335;BME280;3708;42.632;23.378;2022-08-16T04:21:03;93997.88;;;23.61;54.01
7335;BME280;3708;42.632;23.378;2022-08-16T04:23:30;94002.47;;;23.57;54.02
7335;BME280;3708;42.632;23.378;2022-08-16T04:25:57;94000.53;;;23.61;53.85
7335;BME280;3708;42.632;23.378;2022-08-16T04:28:24;93998.91;;;23.67;53.40
7335;BME280;3708;42.632;23.378;2022-08-16T04:30:53;93994.66;;;23.70;53.25
7335;BME280;3708;42.632;23.378;2022-08-16T04:33:37;94000.59;;;23.81;53.00
7335;BME280;3708;42.632;23.378;2022-08-16T04:36:05;93997.16;;;23.80;53.31
7335;BME280;3708;42.632;23.378;2022-08-16T04:38:32;94005.00;;;23.91;52.95
7335;BME280;3708;42.632;23.378;2022-08-16T04:40:58;93998.63;;;24.08;52.89
7335;BME280;3708;42.632;23.378;2022-08-16T04:43:25;93996.16;;;24.17;52.69
7335;BME280;3708;42.632;23.378;2022-08-16T04:45:54;94005.44;;;24.32;52.31
7335;BME280;3708;42.632;23.378;2022-08-16T04:48:21;93994.44;;;24.46;52.32
7335;BME280;3708;42.632;23.378;2022-08-16T04:50:48;93994.25;;;24.57;52.14
7335;BME280;3708;42.632;23.378;2022-08-16T04:53:15;93990.47;;;24.54;51.83
7335;BME280;3708;42.632;23.378;2022-08-16T04:55:42;93980.94;;;24.53;51.60
7335;BME280;3708;42.632;23.378;2022-08-16T04:58:09;93980.25;;;24.49;52.02
7335;BME280;3708;42.632;23.378;2022-08-16T05:00:36;93980.16;;;24.33;51.99
7335;BME280;3708;42.632;23.378;2022-08-16T05:03:12;93996.91;;;24.17;52.77
7335;BME280;3708;42.632;23.378;2022-08-16T05:05:40;94010.50;;;23.57;53.80
7335;BME280;3708;42.632;23.378;2022-08-16T05:08:07;94013.50;;;23.63;54.09
7335;BME280;3708;42.632;23.378;2022-08-16T05:10:34;94011.41;;;23.74;53.97
7335;BME280;3708;42.632;23.378;2022-08-16T05:13:03;94027.81;;;23.76;54.39
7335;BME280;3708;42.632;23.378;2022-08-16T05:15:33;94022.69;;;23.35;55.67
7335;BME280;3708;42.632;23.378;2022-08-16T05:18:00;94017.84;;;23.26;56.21
7335;BME280;3708;42.632;23.378;2022-08-16T05:20:29;94019.47;;;23.20;56.74
7335;BME280;3708;42.632;23.378;2022-08-16T05:22:56;94017.63;;;23.14;57.05
7335;BME280;3708;42.632;23.378;2022-08-16T05:25:23;94023.09;;;23.33;56.79
7335;BME280;3708;42.632;23.378;2022-08-16T05:27:50;94030.84;;;23.51;56.31
7335;BME280;3708;42.632;23.378;2022-08-16T05:30:19;94034.44;;;23.68;56.10
7335;BME280;3708;42.632;23.378;2022-08-16T05:32:46;94025.22;;;23.69;55.67
7335;BME280;3708;42.632;23.378;2022-08-16T05:35:14;94023.66;;;23.71;55.56
7335;BME280;3708;42.632;23.378;2022-08-16T05:37:42;94024.59;;;23.84;55.23
7335;BME280;3708;42.632;23.378;2022-08-16T05:40:11;94018.38;;;23.91;55.37
7335;BME280;3708;42.632;23.378;2022-08-16T05:42:38;94002.25;;;23.94;55.29
7335;BME280;3708;42.632;23.378;2022-08-16T05:45:06;93998.63;;;24.08;54.74
7335;BME280;3708;42.632;23.378;2022-08-16T05:47:33;94010.28;;;23.94;55.16
7335;BME280;3708;42.632;23.378;2022-08-16T05:50:01;94014.94;;;23.90;55.24
7335;BME280;3708;42.632;23.378;2022-08-16T05:52:28;94020.22;;;23.94;54.90
7335;BME280;3708;42.632;23.378;2022-08-16T05:54:56;94031.75;;;23.68;55.63
7335;BME280;3708;42.632;23.378;2022-08-16T05:57:24;94024.59;;;23.61;56.07
7335;BME280;3708;42.632;23.378;2022-08-16T05:59:51;94023.91;;;23.80;55.54
7335;BME280;3708;42.632;23.378;2022-08-16T06:02:18;94018.63;;;24.00;55.14
7335;BME280;3708;42.632;23.378;2022-08-16T06:04:46;94019.88;;;23.92;55.21
7335;BME280;3708;42.632;23.378;2022-08-16T06:07:13;94020.59;;;24.19;54.95
7335;BME280;3708;42.632;23.378;2022-08-16T06:09:40;94026.69;;;24.39;54.13
7335;BME280;3708;42.632;23.378;2022-08-16T06:12:09;94029.22;;;24.50;53.40
7335;BME280;3708;42.632;23.378;2022-08-16T06:14:37;94020.88;;;24.44;53.41
7335;BME280;3708;42.632;23.378;2022-08-16T06:17:03;94016.09;;;24.55;53.09
7335;BME280;3708;42.632;23.378;2022-08-16T06:19:31;94017.66;;;24.72;53.01
7335;BME280;3708;42.632;23.378;2022-08-16T06:21:58;94022.41;;;24.84;52.65
7335;BME280;3708;42.632;23.378;2022-08-16T06:24:25;94018.56;;;24.85;52.46
7335;BME280;3708;42.632;23.378;2022-08-16T06:26:52;94027.22;;;24.73;52.79
7335;BME280;3708;42.632;23.378;2022-08-16T06:29:20;94019.72;;;24.65;53.01
7335;BME280;3708;42.632;23.378;2022-08-16T06:31:47;94020.94;;;24.99;51.81
7335;BME280;3708;42.632;23.378;2022-08-16T06:34:14;94016.31;;;25.20;51.64
7335;BME280;3708;42.632;23.378;2022-08-16T06:36:41;94012.19;;;25.15;51.71
7335;BME280;3708;42.632;23.378;2022-08-16T06:39:08;94004.38;;;25.05;52.24
7335;BME280;3708;42.632;23.378;2022-08-16T06:41:35;94018.50;;;25.41;51.24
7335;BME280;3708;42.632;23.378;2022-08-16T06:44:02;94013.44;;;25.11;51.79
7335;BME280;3708;42.632;23.378;2022-08-16T06:46:33;94013.44;;;25.11;52.28
7335;BME280;3708;42.632;23.378;2022-08-16T06:49:03;94012.25;;;25.47;51.31
7335;BME280;3708;42.632;23.378;2022-08-16T06:51:30;94009.91;;;25.82;50.57
7335;BME280;3708;42.632;23.378;2022-08-16T06:53:57;94002.06;;;26.03;49.41
7335;BME280;3708;42.632;23.378;2022-08-16T06:56:24;94004.38;;;26.33;48.33
7335;BME280;3708;42.632;23.378;2022-08-16T06:58:51;93996.09;;;26.57;47.99
7335;BME280;3708;42.632;23.378;2022-08-16T07:01:19;94008.63;;;26.18;48.33
7335;BME280;3708;42.632;23.378;2022-08-16T07:03:48;93996.66;;;26.35;48.39
7335;BME280;3708;42.632;23.378;2022-08-16T07:06:16;93990.91;;;26.50;48.04
7335;BME280;3708;42.632;23.378;2022-08-16T07:08:44;93982.75;;;26.82;47.54
7335;BME280;3708;42.632;23.378;2022-08-16T07:11:11;93993.13;;;27.08;46.98
7335;BME280;3708;42.632;23.378;2022-08-16T07:13:39;93992.16;;;27.28;46.89
7335;BME280;3708;42.632;23.378;2022-08-16T07:16:07;93987.53;;;27.53;46.41
7335;BME280;3708;42.632;23.378;2022-08-16T07:18:47;93989.22;;;27.22;46.91
7335;BME280;3708;42.632;23.378;2022-08-16T07:21:14;93985.28;;;27.39;45.78
7335;BME280;3708;42.632;23.378;2022-08-16T07:23:42;93983.00;;;27.50;45.49
7335;BME280;3708;42.632;23.378;2022-08-16T07:26:13;93979.06;;;27.89;44.70
7335;BME280;3708;42.632;23.378;2022-08-16T07:28:40;93974.50;;;28.11;44.36
7335;BME280;3708;42.632;23.378;2022-08-16T07:31:07;93966.75;;;28.35;44.04
7335;BME280;3708;42.632;23.378;2022-08-16T07:33:35;93968.38;;;28.54;43.73
7335;BME280;3708;42.632;23.378;2022-08-16T07:36:05;93975.50;;;27.92;44.45
7335;BME280;3708;42.632;23.378;2022-08-16T07:38:33;93975.31;;;27.99;44.44
7335;BME280;3708;42.632;23.378;2022-08-16T07:41:01;93973.34;;;28.00;44.32
7335;BME280;3708;42.632;23.378;2022-08-16T07:43:28;93967.88;;;27.90;45.19
7335;BME280;3708;42.632;23.378;2022-08-16T07:45:55;93982.75;;;28.29;44.47
7335;BME280;3708;42.632;23.378;2022-08-16T07:48:23;93980.59;;;28.46;43.84
7335;BME280;3708;42.632;23.378;2022-08-16T07:50:51;93978.28;;;28.35;43.27
7335;BME280;3708;42.632;23.378;2022-08-16T07:53:19;93974.72;;;28.04;43.89
7335;BME280;3708;42.632;23.378;2022-08-16T07:55:46;93974.91;;;28.22;44.11
7335;BME280;3708;42.632;23.378;2022-08-16T07:58:13;93986.56;;;28.41;43.93
7335;BME280;3708;42.632;23.378;2022-08-16T08:00:41;93986.72;;;28.59;43.23
7335;BME280;3708;42.632;23.378;2022-08-16T08:03:08;93978.06;;;28.64;43.01
7335;BME280;3708;42.632;23.378;2022-08-16T08:05:36;93987.53;;;28.99;42.58
7335;BME280;3708;42.632;23.378;2022-08-16T08:08:05;93994.28;;;29.25;42.38
7335;BME280;3708;42.632;23.378;2022-08-16T08:10:33;93993.28;;;29.32;41.59
7335;BME280;3708;42.632;23.378;2022-08-16T08:13:00;93987.31;;;29.37;42.11
7335;BME280;3708;42.632;23.378;2022-08-16T08:15:27;93994.06;;;29.51;41.14
7335;BME280;3708;42.632;23.378;2022-08-16T08:17:54;93987.34;;;29.15;41.11
7335;BME280;3708;42.632;23.378;2022-08-16T08:20:22;93991.88;;;28.97;41.98
7335;BME280;3708;42.632;23.378;2022-08-16T08:22:52;93986.69;;;29.02;41.98
7335;BME280;3708;42.632;23.378;2022-08-16T08:25:20;93987.81;;;28.92;42.49
7335;BME280;3708;42.632;23.378;2022-08-16T08:27:49;93992.69;;;29.06;42.20
7335;BME280;3708;42.632;23.378;2022-08-16T08:30:17;93993.50;;;28.94;41.54
7335;BME280;3708;42.632;23.378;2022-08-16T08:32:44;93990.28;;;28.22;43.27
7335;BME280;3708;42.632;23.378;2022-08-16T08:35:11;93998.78;;;27.73;44.57
7335;BME280;3708;42.632;23.378;2022-08-16T08:37:38;93994.53;;;28.10;43.79
7335;BME280;3708;42.632;23.378;2022-08-16T08:40:08;93999.28;;;28.62;43.64
7335;BME280;3708;42.632;23.378;2022-08-16T08:42:37;93991.78;;;29.09;41.90
7335;BME280;3708;42.632;23.378;2022-08-16T08:45:08;93994.84;;;29.51;40.77
7335;BME280;3708;42.632;23.378;2022-08-16T08:47:36;94000.19;;;29.82;39.88
7335;BME280;3708;42.632;23.378;2022-08-16T08:50:04;94000.41;;;30.05;39.33
7335;BME280;3708;42.632;23.378;2022-08-16T08:52:31;93998.44;;;30.15;39.60
7335;BME280;3708;42.632;23.378;2022-08-16T08:54:58;94002.66;;;30.25;39.51
7335;BME280;3708;42.632;23.378;2022-08-16T08:57:30;93988.56;;;30.48;38.37
7335;BME280;3708;42.632;23.378;2022-08-16T08:59:56;93995.16;;;30.74;37.34
7335;BME280;3708;42.632;23.378;2022-08-16T09:02:25;94000.84;;;30.67;37.58
7335;BME280;3708;42.632;23.378;2022-08-16T09:04:52;93987.69;;;30.42;37.01
7335;BME280;3708;42.632;23.378;2022-08-16T09:07:19;93992.00;;;30.76;36.89
7335;BME280;3708;42.632;23.378;2022-08-16T09:09:46;93984.34;;;30.56;37.26
7335;BME280;3708;42.632;23.378;2022-08-16T09:12:13;93982.25;;;30.60;37.01
7335;BME280;3708;42.632;23.378;2022-08-16T09:14:43;93984.63;;;30.67;36.81
7335;BME280;3708;42.632;23.378;2022-08-16T09:17:10;93986.41;;;30.98;36.39
7335;BME280;3708;42.632;23.378;2022-08-16T09:19:39;93992.44;;;30.83;35.96
7335;BME280;3708;42.632;23.378;2022-08-16T09:22:06;94005.97;;;30.93;36.25
7335;BME280;3708;42.632;23.378;2022-08-16T09:24:34;93993.34;;;30.80;36.29
7335;BME280;3708;42.632;23.378;2022-08-16T09:27:02;93999.09;;;30.55;37.31
7335;BME280;3708;42.632;23.378;2022-08-16T09:29:29;93996.22;;;30.50;37.30
7335;BME280;3708;42.632;23.378;2022-08-16T09:31:57;93986.84;;;31.05;34.88
7335;BME280;3708;42.632;23.378;2022-08-16T09:34:25;93983.50;;;31.61;34.12
7335;BME280;3708;42.632;23.378;2022-08-16T09:36:53;93978.22;;;31.25;34.46
7335;BME280;3708;42.632;23.378;2022-08-16T09:39:23;93972.75;;;31.43;34.39
7335;BME280;3708;42.632;23.378;2022-08-16T09:41:50;93974.94;;;32.10;34.08
7335;BME280;3708;42.632;23.378;2022-08-16T09:44:17;93985.19;;;32.29;33.36
7335;BME280;3708;42.632;23.378;2022-08-16T09:46:45;93987.06;;;31.25;33.12
7335;BME280;3708;42.632;23.378;2022-08-16T09:49:12;93978.75;;;32.03;32.31
7335;BME280;3708;42.632;23.378;2022-08-16T09:51:40;93982.03;;;32.07;31.89
7335;BME280;3708;42.632;23.378;2022-08-16T09:54:08;93973.72;;;31.64;31.80
7335;BME280;3708;42.632;23.378;2022-08-16T09:56:38;93970.66;;;31.71;31.40
7335;BME280;3708;42.632;23.378;2022-08-16T09:59:07;93974.59;;;31.93;31.22
7335;BME280;3708;42.632;23.378;2022-08-16T10:01:36;93995.28;;;30.98;32.10
7335;BME280;3708;42.632;23.378;2022-08-16T10:04:06;93975.47;;;30.74;32.77
7335;BME280;3708;42.632;23.378;2022-08-16T10:06:33;93981.34;;;30.72;33.64
7335;BME280;3708;42.632;23.378;2022-08-16T10:09:03;93972.78;;;30.29;34.48
7335;BME280;3708;42.632;23.378;2022-08-16T10:11:31;93973.88;;;30.40;33.72
7335;BME280;3708;42.632;23.378;2022-08-16T10:14:27;93988.25;;;30.28;33.46
7335;BME280;3708;42.632;23.378;2022-08-16T10:16:57;93990.81;;;30.59;32.75
7335;BME280;3708;42.632;23.378;2022-08-16T10:19:24;93982.09;;;30.55;33.35
7335;BME280;3708;42.632;23.378;2022-08-16T10:21:53;93991.56;;;30.59;31.91
7335;BME280;3708;42.632;23.378;2022-08-16T10:24:20;93983.25;;;30.99;31.53
7335;BME280;3708;42.632;23.378;2022-08-16T10:26:49;93954.38;;;31.38;30.35
7335;BME280;3708;42.632;23.378;2022-08-16T10:29:17;93957.13;;;32.56;29.23
7335;BME280;3708;42.632;23.378;2022-08-16T10:31:44;93963.72;;;33.08;28.77
7335;BME280;3708;42.632;23.378;2022-08-16T10:34:12;93970.78;;;32.62;29.02
7335;BME280;3708;42.632;23.378;2022-08-16T10:36:39;93957.50;;;32.64;30.32
7335;BME280;3708;42.632;23.378;2022-08-16T10:39:06;93991.94;;;32.10;28.51
7335;BME280;3708;42.632;23.378;2022-08-16T10:41:33;93982.41;;;32.00;27.66
7335;BME280;3708;42.632;23.378;2022-08-16T10:44:01;93975.38;;;31.61;28.78
7335;BME280;3708;42.632;23.378;2022-08-16T10:46:29;93969.28;;;31.75;29.08
7335;BME280;3708;42.632;23.378;2022-08-16T10:48:56;93962.50;;;31.47;28.87
7335;BME280;3708;42.632;23.378;2022-08-16T10:51:23;93969.47;;;32.19;28.67
7335;BME280;3708;42.632;23.378;2022-08-16T10:53:50;93972.69;;;31.85;29.14
7335;BME280;3708;42.632;23.378;2022-08-16T10:56:16;93967.38;;;31.90;29.77
7335;BME280;3708;42.632;23.378;2022-08-16T10:58:43;93971.97;;;32.22;29.41
7335;BME280;3708;42.632;23.378;2022-08-16T11:01:12;93963.88;;;33.19;28.78
7335;BME280;3708;42.632;23.378;2022-08-16T11:03:40;93980.91;;;33.05;29.70
7335;BME280;3708;42.632;23.378;2022-08-16T11:06:08;93988.69;;;32.45;30.37
7335;BME280;3708;42.632;23.378;2022-08-16T11:08:36;93975.38;;;31.85;31.98
7335;BME280;3708;42.632;23.378;2022-08-16T11:11:04;93975.38;;;32.70;30.03
7335;BME280;3708;42.632;23.378;2022-08-16T11:13:32;93978.34;;;32.58;30.17
7335;BME280;3708;42.632;23.378;2022-08-16T11:15:59;93973.53;;;32.91;29.04
7335;BME280;3708;42.632;23.378;2022-08-16T11:18:28;93963.47;;;33.55;28.01
7335;BME280;3708;42.632;23.378;2022-08-16T11:20:55;93971.50;;;33.50;27.46
7335;BME280;3708;42.632;23.378;2022-08-16T11:23:23;93955.31;;;33.55;27.40
7335;BME280;3708;42.632;23.378;2022-08-16T11:25:50;93949.06;;;34.24;26.77
7335;BME280;3708;42.632;23.378;2022-08-16T11:28:18;93953.88;;;34.15;26.18
7335;BME280;3708;42.632;23.378;2022-08-16T11:30:45;93951.72;;;34.44;26.13
7335;BME280;3708;42.632;23.378;2022-08-16T11:33:12;93949.16;;;34.81;25.70
7335;BME280;3708;42.632;23.378;2022-08-16T11:35:40;93945.63;;;34.75;25.92
7335;BME280;3708;42.632;23.378;2022-08-16T11:38:09;93955.19;;;34.45;26.38
7335;BME280;3708;42.632;23.378;2022-08-16T11:40:42;93957.16;;;33.84;26.60
7335;BME280;3708;42.632;23.378;2022-08-16T11:43:12;93948.03;;;34.22;26.74
7335;BME280;3708;42.632;23.378;2022-08-16T11:45:39;93948.03;;;34.02;27.05
7335;BME280;3708;42.632;23.378;2022-08-16T11:48:07;93942.69;;;33.38;27.77
7335;BME280;3708;42.632;23.378;2022-08-16T11:50:34;93951.16;;;33.25;28.44
7335;BME280;3708;42.632;23.378;2022-08-16T11:53:04;93944.13;;;32.89;29.36
7335;BME280;3708;42.632;23.378;2022-08-16T11:55:31;93950.59;;;32.92;29.64
7335;BME280;3708;42.632;23.378;2022-08-16T11:57:59;93972.78;;;32.76;30.10
7335;BME280;3708;42.632;23.378;2022-08-16T12:00:28;93967.88;;;32.51;31.17
7335;BME280;3708;42.632;23.378;2022-08-16T12:02:55;94006.03;;;31.91;31.20
7335;BME280;3708;42.632;23.378;2022-08-16T12:05:22;93964.50;;;30.86;32.66
7335;BME280;3708;42.632;23.378;2022-08-16T12:07:51;93966.34;;;30.53;33.23
7335;BME280;3708;42.632;23.378;2022-08-16T12:10:23;93962.47;;;31.14;30.37
7335;BME280;3708;42.632;23.378;2022-08-16T12:12:50;93962.47;;;31.80;28.81
7335;BME280;3708;42.632;23.378;2022-08-16T12:15:18;93956.38;;;32.70;27.43
7335;BME280;3708;42.632;23.378;2022-08-16T12:17:45;93951.44;;;33.47;26.15
7335;BME280;3708;42.632;23.378;2022-08-16T12:20:16;93953.19;;;34.20;25.56
7335;BME280;3708;42.632;23.378;2022-08-16T12:22:43;93945.34;;;34.47;25.31
7335;BME280;3708;42.632;23.378;2022-08-16T12:25:32;93948.28;;;34.44;25.63
7335;BME280;3708;42.632;23.378;2022-08-16T12:27:59;93931.94;;;34.64;25.91
7335;BME280;3708;42.632;23.378;2022-08-16T12:30:30;93930.34;;;35.40;25.24
7335;BME280;3708;42.632;23.378;2022-08-16T12:32:59;93925.22;;;35.95;24.72
7335;BME280;3708;42.632;23.378;2022-08-16T12:35:34;93919.63;;;36.21;24.23
7335;BME280;3708;42.632;23.378;2022-08-16T12:38:02;93913.38;;;36.96;24.11
7335;BME280;3708;42.632;23.378;2022-08-16T12:40:34;93917.56;;;37.36;22.63
7335;BME280;3708;42.632;23.378;2022-08-16T12:43:04;93911.94;;;35.30;24.96
7335;BME280;3708;42.632;23.378;2022-08-16T12:45:35;93910.81;;;36.59;24.21
7335;BME280;3708;42.632;23.378;2022-08-16T12:48:03;93916.53;;;36.78;23.28
7335;BME280;3708;42.632;23.378;2022-08-16T12:50:47;93913.09;;;35.96;24.14
7335;BME280;3708;42.632;23.378;2022-08-16T12:53:14;93912.78;;;36.64;23.42
7335;BME280;3708;42.632;23.378;2022-08-16T12:55:43;93918.47;;;36.44;23.79
7335;BME280;3708;42.632;23.378;2022-08-16T12:58:10;93911.53;;;36.43;23.71
7335;BME280;3708;42.632;23.378;2022-08-16T13:00:39;93912.53;;;36.62;23.79
7335;BME280;3708;42.632;23.378;2022-08-16T13:03:06;93904.13;;;36.71;23.87
7335;BME280;3708;42.632;23.378;2022-08-16T13:05:35;93896.44;;;36.59;23.81
7335;BME280;3708;42.632;23.378;2022-08-16T13:08:05;93890.63;;;36.24;23.87
7335;BME280;3708;42.632;23.378;2022-08-16T13:10:32;93890.47;;;36.60;23.64
7335;BME280;3708;42.632;23.378;2022-08-16T13:13:01;93890.34;;;35.52;24.66
7335;BME280;3708;42.632;23.378;2022-08-16T13:15:30;93894.84;;;35.29;25.00